Time;durP1;ratioP1;P1;durP2;ratioP2;P2;SDS_P1;SDS_P2;PMS_P1;PMS_P2;Temp;Humidity;BMP_temperature;BMP_pressure;BME280_temperature;BME280_humidity;BME280_pressure;Samples;Min_cycle;Max_cycle;Signal;HPM_P1;HPM_P2
2024/03/20 00:00:21;;;;;;;1999.90;999.90;;;11.30;99.90;;;;;;5011061;28;20053;-71
2024/03/20 00:02:47;;;;;;;1999.90;999.90;;;11.40;99.90;;;;;;5013363;28;20104;-71
2024/03/20 00:05:18;;;;;;;1999.90;999.90;;;11.40;99.90;;;;;;5013087;28;20050;-71
2024/03/20 00:07:44;;;;;;;1999.90;999.90;;;11.40;99.90;;;;;;5013146;28;20084;-71
2024/03/20 00:10:13;;;;;;;1999.90;999.90;;;11.30;99.90;;;;;;5013139;28;20033;-71
2024/03/20 00:12:41;;;;;;;1999.90;999.90;;;11.40;99.90;;;;;;5012780;28;20026;-71
2024/03/20 00:15:08;;;;;;;1999.90;999.90;;;11.40;99.90;;;;;;5013099;28;20113;-80
2024/03/20 00:17:34;;;;;;;1999.90;999.90;;;11.40;99.90;;;;;;5013017;28;20029;-80
2024/03/20 00:20:00;;;;;;;1999.90;999.90;;;11.30;99.90;;;;;;5012382;28;20173;-80
2024/03/20 00:22:26;;;;;;;1999.90;999.90;;;11.40;99.90;;;;;;5005464;28;20018;-77
2024/03/20 00:24:52;;;;;;;1999.90;999.90;;;11.40;99.90;;;;;;4997061;28;20393;-71
2024/03/20 00:27:18;;;;;;;1999.90;999.90;;;11.30;99.90;;;;;;4997211;28;20018;-71
2024/03/20 00:29:43;;;;;;;1999.90;999.90;;;11.30;99.90;;;;;;5011012;28;20037;-71
2024/03/20 00:32:09;;;;;;;1999.90;999.90;;;11.40;99.90;;;;;;5016603;28;20116;-80
2024/03/20 00:34:35;;;;;;;1999.90;999.90;;;11.40;99.90;;;;;;5016101;28;20405;-80
2024/03/20 00:37:01;;;;;;;1999.90;999.90;;;11.30;99.90;;;;;;5016480;28;20033;-80
2024/03/20 00:39:26;;;;;;;1999.90;999.90;;;11.30;99.90;;;;;;5016642;28;20045;-71
2024/03/20 00:41:53;;;;;;;1999.90;999.90;;;11.20;99.90;;;;;;5016506;28;20084;-71
2024/03/20 00:44:19;;;;;;;1999.90;999.90;;;11.20;99.90;;;;;;5014850;28;20558;-80
2024/03/20 00:46:44;;;;;;;1999.90;999.90;;;11.10;99.90;;;;;;5015173;28;20030;-71
2024/03/20 00:49:10;;;;;;;1999.90;999.90;;;11.00;99.90;;;;;;5016618;28;20057;-71
2024/03/20 00:51:36;;;;;;;1999.90;999.90;;;11.00;99.90;;;;;;5016513;28;20044;-71
2024/03/20 00:54:01;;;;;;;1999.90;999.90;;;10.90;99.90;;;;;;5016293;28;20030;-71
2024/03/20 00:56:27;;;;;;;1999.90;999.90;;;10.90;99.90;;;;;;5014742;28;20030;-79
2024/03/20 00:58:52;;;;;;;1999.90;999.90;;;10.90;99.90;;;;;;5014721;28;20026;-80
2024/03/20 01:01:18;;;;;;;1999.90;999.90;;;10.90;99.90;;;;;;5016049;28;20463;-80
2024/03/20 01:03:44;;;;;;;1999.90;999.90;;;11.00;99.90;;;;;;5016315;28;20384;-71
2024/03/20 01:06:09;;;;;;;1999.90;999.90;;;11.00;99.90;;;;;;5015207;28;20109;-71
2024/03/20 01:08:38;;;;;;;1999.90;999.90;;;10.90;99.90;;;;;;5015693;28;20022;-80
2024/03/20 01:11:05;;;;;;;1999.90;999.90;;;10.90;99.90;;;;;;5016204;28;20105;-71
2024/03/20 01:13:30;;;;;;;1999.90;999.90;;;10.90;99.90;;;;;;5014638;28;20030;-79
2024/03/20 01:15:56;;;;;;;1999.90;999.90;;;10.90;99.90;;;;;;5015813;28;20030;-70
2024/03/20 01:18:21;;;;;;;1999.90;999.90;;;10.80;99.90;;;;;;5015731;28;20041;-71
2024/03/20 01:20:47;;;;;;;1999.90;999.90;;;10.70;99.90;;;;;;5014158;28;20037;-80
2024/03/20 01:23:13;;;;;;;1999.90;999.90;;;10.70;99.90;;;;;;5003281;28;20503;-79
2024/03/20 01:25:39;;;;;;;1999.90;999.90;;;10.70;99.90;;;;;;4996050;28;20041;-80
2024/03/20 01:28:05;;;;;;;1999.90;999.90;;;10.70;99.90;;;;;;4996773;28;20481;-79
2024/03/20 01:30:31;;;;;;;1999.90;999.90;;;10.70;99.90;;;;;;5015343;28;20431;-71
2024/03/20 01:32:57;;;;;;;1999.90;999.90;;;10.70;99.90;;;;;;5014053;28;20141;-70
2024/03/20 01:35:22;;;;;;;1999.90;999.90;;;10.70;99.90;;;;;;5015299;28;20128;-79
2024/03/20 01:37:48;;;;;;;1999.90;999.90;;;10.70;99.90;;;;;;5015584;28;20030;-79
2024/03/20 01:40:14;;;;;;;1999.90;999.90;;;10.70;99.90;;;;;;5015286;28;20026;-79
2024/03/20 01:42:40;;;;;;;1999.90;999.90;;;10.80;99.90;;;;;;5015172;28;20449;-71
2024/03/20 01:45:14;;;;;;;1999.90;999.90;;;10.70;99.90;;;;;;5015224;28;20037;-79
2024/03/20 01:47:44;;;;;;;1999.90;999.90;;;10.80;99.90;;;;;;5030668;28;20022;-80
2024/03/20 01:50:11;;;;;;;1999.90;999.90;;;10.80;99.90;;;;;;5015507;28;20038;-80
2024/03/20 01:52:50;;;;;;;1999.90;999.90;;;10.80;99.90;;;;;;5015101;28;20026;-79
2024/03/20 01:55:20;;;;;;;1999.90;999.90;;;10.80;99.90;;;;;;5015347;28;20029;-71
2024/03/20 01:57:45;;;;;;;1999.90;999.90;;;10.80;99.90;;;;;;5013941;28;20022;-71
2024/03/20 02:00:13;;;;;;;1999.90;999.90;;;10.80;99.90;;;;;;5014668;28;20516;-79
2024/03/20 02:02:42;;;;;;;1999.90;999.90;;;10.80;99.90;;;;;;5014991;28;20036;-79
2024/03/20 02:05:07;;;;;;;1999.90;999.90;;;10.80;99.90;;;;;;5015193;28;20436;-79
2024/03/20 02:07:33;;;;;;;1999.90;999.90;;;10.80;99.90;;;;;;5015077;28;20026;-70
2024/03/20 02:09:59;;;;;;;1999.90;999.90;;;10.80;99.90;;;;;;5013370;28;20080;-71
2024/03/20 02:12:25;;;;;;;1999.90;999.90;;;10.70;99.90;;;;;;5014530;28;20038;-78
2024/03/20 02:14:50;;;;;;;1999.90;999.90;;;10.70;99.90;;;;;;5014641;28;20036;-80
2024/03/20 02:17:16;;;;;;;1999.90;999.90;;;10.70;99.90;;;;;;5014807;28;20030;-79
2024/03/20 02:19:42;;;;;;;1999.90;999.90;;;10.60;99.90;;;;;;5013162;28;20068;-70
2024/03/20 02:22:08;;;;;;;1999.90;999.90;;;10.60;99.90;;;;;;5011151;28;20563;-70
2024/03/20 02:24:33;;;;;;;1999.90;999.90;;;10.60;99.90;;;;;;4994532;28;20026;-70
2024/03/20 02:26:59;;;;;;;1999.90;999.90;;;10.50;99.90;;;;;;4995342;28;20169;-79
2024/03/20 02:29:25;;;;;;;1999.90;999.90;;;10.50;99.90;;;;;;5006377;28;20065;-80
2024/03/20 02:31:50;;;;;;;1999.90;999.90;;;10.50;99.90;;;;;;5013089;28;20505;-71
2024/03/20 02:34:16;;;;;;;1999.90;999.90;;;10.50;99.90;;;;;;5014284;28;20034;-70
2024/03/20 02:36:42;;;;;;;1999.90;999.90;;;10.50;99.90;;;;;;5014046;28;20160;-70
2024/03/20 02:39:08;;;;;;;1999.90;999.90;;;10.50;99.90;;;;;;5014335;28;20112;-78
2024/03/20 02:41:34;;;;;;;1999.90;999.90;;;10.50;99.90;;;;;;5014094;28;20485;-70
2024/03/20 02:43:59;;;;;;;1999.90;999.90;;;10.40;99.90;;;;;;5014378;28;20037;-70
2024/03/20 02:46:25;;;;;;;1999.90;999.90;;;10.40;99.90;;;;;;5013440;28;20469;-70
2024/03/20 02:48:50;;;;;;;1999.90;999.90;;;10.40;99.90;;;;;;5012610;28;20025;-70
2024/03/20 02:51:16;;;;;;;1999.90;999.90;;;10.40;99.90;;;;;;5014434;28;20029;-79
2024/03/20 02:53:42;;;;;;;1999.90;999.90;;;10.40;99.90;;;;;;5014075;28;20485;-79
2024/03/20 02:56:07;;;;;;;1999.90;999.90;;;10.50;99.90;;;;;;5013186;28;20396;-79
2024/03/20 02:58:33;;;;;;;1999.90;999.90;;;10.50;99.90;;;;;;5013644;28;20034;-78
2024/03/20 03:00:59;;;;;;;1999.90;999.90;;;10.50;99.90;;;;;;5013752;28;20049;-70
2024/03/20 03:03:24;;;;;;;1999.90;999.90;;;10.50;99.90;;;;;;5013877;28;20488;-71
2024/03/20 03:05:50;;;;;;;1999.90;999.90;;;10.50;99.90;;;;;;5013773;28;20095;-79
2024/03/20 03:08:15;;;;;;;1999.90;999.90;;;10.40;99.90;;;;;;5012386;28;20092;-79
2024/03/20 03:10:41;;;;;;;1999.90;999.90;;;10.40;99.90;;;;;;5013848;28;20084;-79
2024/03/20 03:13:07;;;;;;;1999.90;999.90;;;10.40;99.90;;;;;;5013610;28;20061;-77
2024/03/20 03:15:35;;;;;;;1999.90;999.90;;;10.40;99.90;;;;;;5013736;28;20072;-71
2024/03/20 03:18:01;;;;;;;1999.90;999.90;;;10.40;99.90;;;;;;5013840;28;20038;-79
2024/03/20 03:20:27;;;;;;;1999.90;999.90;;;10.40;99.90;;;;;;5013460;28;20148;-70
2024/03/20 03:22:53;;;;;;;1999.90;999.90;;;10.30;99.90;;;;;;5004046;28;20160;-79
2024/03/20 03:25:19;;;;;;;1999.90;999.90;;;10.40;99.90;;;;;;4992513;28;20022;-70
2024/03/20 03:27:45;;;;;;;1999.90;999.90;;;10.40;99.90;;;;;;4994242;28;20030;-70
2024/03/20 03:30:11;;;;;;;1999.90;999.90;;;10.30;99.90;;;;;;5011246;28;20038;-79
2024/03/20 03:32:38;;;;;;;1999.90;999.90;;;10.40;99.90;;;;;;5013508;28;20488;-71
2024/03/20 03:35:05;;;;;;;1999.90;999.90;;;10.40;99.90;;;;;;5013367;28;20543;-79
2024/03/20 03:37:31;;;;;;;1999.90;999.90;;;10.40;99.90;;;;;;5012741;28;20130;-79
2024/03/20 03:39:56;;;;;;;1999.90;999.90;;;10.40;99.90;;;;;;5013275;28;20077;-70
2024/03/20 03:42:22;;;;;;;1999.90;999.90;;;10.40;99.90;;;;;;5013050;28;20436;-70
2024/03/20 03:44:49;;;;;;;1999.90;999.90;;;10.40;99.90;;;;;;5011824;28;20108;-70
2024/03/20 03:47:14;;;;;;;1999.90;999.90;;;10.40;99.90;;;;;;5012947;28;20519;-79
2024/03/20 03:49:40;;;;;;;1999.90;999.90;;;10.40;99.90;;;;;;5013226;28;20030;-80
2024/03/20 03:52:06;;;;;;;1999.90;999.90;;;10.40;99.90;;;;;;5011738;28;20030;-70
2024/03/20 03:54:31;;;;;;;1999.90;999.90;;;10.40;99.90;;;;;;5012903;28;20106;-70
2024/03/20 03:56:57;;;;;;;1999.90;999.90;;;10.50;99.90;;;;;;5012049;28;20030;-79
2024/03/20 03:59:23;;;;;;;1999.90;999.90;;;10.50;99.90;;;;;;5012327;28;20038;-71
2024/03/20 04:01:49;;;;;;;1999.90;999.90;;;10.50;99.90;;;;;;5012709;28;20045;-79
2024/03/20 04:04:14;;;;;;;1999.90;999.90;;;10.50;99.90;;;;;;5012332;28;20025;-79
2024/03/20 04:06:41;;;;;;;1999.90;999.90;;;10.50;99.90;;;;;;5012817;28;20026;-79
2024/03/20 04:09:07;;;;;;;1999.90;999.90;;;10.40;99.90;;;;;;5012861;28;20022;-79
2024/03/20 04:11:34;;;;;;;1999.90;999.90;;;10.30;99.90;;;;;;5013225;28;20095;-79
2024/03/20 04:14:00;;;;;;;1999.90;999.90;;;10.30;99.90;;;;;;5013004;28;20512;-80
2024/03/20 04:16:26;;;;;;;1999.90;999.90;;;10.30;99.90;;;;;;5012756;28;20053;-78
2024/03/20 04:18:51;;;;;;;1999.90;999.90;;;10.30;99.90;;;;;;5012967;28;20030;-70
2024/03/20 04:21:17;;;;;;;1999.90;999.90;;;10.30;99.90;;;;;;5012433;28;20101;-79
2024/03/20 04:23:43;;;;;;;1999.90;999.90;;;10.30;99.90;;;;;;4995051;28;20471;-79
2024/03/20 04:26:09;;;;;;;1999.90;999.90;;;10.40;99.90;;;;;;4993020;28;20037;-79
2024/03/20 04:28:35;;;;;;;1999.90;999.90;;;10.40;99.90;;;;;;4997899;28;20105;-70
2024/03/20 04:31:01;;;;;;;1999.90;999.90;;;10.30;99.90;;;;;;5012122;28;20101;-80
2024/03/20 04:33:26;;;;;;;1999.90;999.90;;;10.30;99.90;;;;;;5011320;28;20040;-70
2024/03/20 04:35:52;;;;;;;1999.90;999.90;;;10.20;99.90;;;;;;5012727;28;20026;-79
2024/03/20 04:38:18;;;;;;;1999.90;999.90;;;10.20;99.90;;;;;;5012684;28;20033;-70
2024/03/20 04:40:43;;;;;;;1999.90;999.90;;;10.20;99.90;;;;;;5012238;28;20034;-79
2024/03/20 04:43:09;;;;;;;1999.90;999.90;;;10.30;99.90;;;;;;5012369;28;20041;-71
2024/03/20 04:45:35;;;;;;;1999.90;999.90;;;10.30;99.90;;;;;;5012469;28;20599;-70
2024/03/20 04:48:01;;;;;;;1999.90;999.90;;;10.40;99.90;;;;;;5012615;28;20108;-79
2024/03/20 04:50:26;;;;;;;1999.90;999.90;;;10.40;99.90;;;;;;5012492;28;20108;-78
2024/03/20 04:52:52;;;;;;;1999.90;999.90;;;10.40;99.90;;;;;;5012490;28;20161;-80
2024/03/20 04:55:17;;;;;;;1999.90;999.90;;;10.30;99.90;;;;;;5012745;28;20077;-80
2024/03/20 04:57:43;;;;;;;1999.90;999.90;;;10.40;99.90;;;;;;5010620;28;20037;-70
2024/03/20 05:00:13;;;;;;;1999.90;999.90;;;10.40;99.90;;;;;;5011764;28;20052;-71
2024/03/20 05:02:40;;;;;;;1999.90;999.90;;;10.40;99.90;;;;;;5012219;28;20080;-80
2024/03/20 05:05:07;;;;;;;1999.90;999.90;;;10.40;99.90;;;;;;5012321;28;20022;-78
2024/03/20 05:07:32;;;;;;;1999.90;999.90;;;10.40;99.90;;;;;;5012368;28;20026;-79
2024/03/20 05:09:58;;;;;;;1999.90;999.90;;;10.50;99.90;;;;;;5014986;28;20041;-70
2024/03/20 05:12:24;;;;;;;1999.90;999.90;;;10.50;99.90;;;;;;5015544;28;20037;-70
2024/03/20 05:14:50;;;;;;;1999.90;999.90;;;10.50;99.90;;;;;;5015270;28;20029;-79
2024/03/20 05:17:15;;;;;;;1999.90;999.90;;;10.60;99.90;;;;;;5015759;28;20028;-79
2024/03/20 05:19:41;;;;;;;1999.90;999.90;;;10.60;99.90;;;;;;5016136;28;20060;-79
2024/03/20 05:22:06;;;;;;;1999.90;999.90;;;10.60;99.90;;;;;;5012263;28;20026;-71
2024/03/20 05:24:32;;;;;;;1999.90;999.90;;;10.60;99.90;;;;;;4995769;28;20029;-70
2024/03/20 05:26:58;;;;;;;1999.90;999.90;;;10.60;99.90;;;;;;4996062;28;20395;-79
2024/03/20 05:29:23;;;;;;;1999.90;999.90;;;10.60;99.90;;;;;;5007283;28;20370;-79
2024/03/20 05:31:49;;;;;;;1999.90;999.90;;;10.60;99.90;;;;;;5015534;28;20056;-79
2024/03/20 05:34:15;;;;;;;1999.90;999.90;;;10.60;99.90;;;;;;5015699;28;20037;-70
2024/03/20 05:36:40;;;;;;;1999.90;999.90;;;10.60;99.90;;;;;;5015364;28;20041;-70
2024/03/20 05:39:08;;;;;;;1999.90;999.90;;;10.50;99.90;;;;;;5015763;28;20029;-70
2024/03/20 05:41:34;;;;;;;1999.90;999.90;;;10.50;99.90;;;;;;5015063;28;20026;-79
2024/03/20 05:43:59;;;;;;;1999.90;999.90;;;10.50;99.90;;;;;;5015593;28;20026;-79
2024/03/20 05:46:25;;;;;;;1999.90;999.90;;;10.50;99.90;;;;;;5013706;28;20072;-70
2024/03/20 05:48:51;;;;;;;1999.90;999.90;;;10.50;99.90;;;;;;5015387;28;20038;-71
2024/03/20 05:51:16;;;;;;;1999.90;999.90;;;10.50;99.90;;;;;;5015383;28;20392;-70
2024/03/20 05:53:42;;;;;;;1999.90;999.90;;;10.60;99.90;;;;;;5015089;28;20029;-79
2024/03/20 05:56:07;;;;;;;1999.90;999.90;;;10.60;99.90;;;;;;5013887;28;20528;-78
2024/03/20 05:58:33;;;;;;;1999.90;999.90;;;10.70;99.90;;;;;;5014066;28;20100;-79
2024/03/20 06:00:59;;;;;;;1999.90;999.90;;;10.70;99.90;;;;;;5014851;28;20045;-79
2024/03/20 06:03:24;;;;;;;1999.90;999.90;;;10.70;99.90;;;;;;5012557;28;20029;-70
2024/03/20 06:05:51;;;;;;;1999.90;999.90;;;10.70;99.90;;;;;;5014791;28;20022;-71
2024/03/20 06:08:16;;;;;;;1999.90;999.90;;;10.70;99.90;;;;;;5014379;28;20018;-70
2024/03/20 06:10:43;;;;;;;1999.90;999.90;;;10.70;99.90;;;;;;5014463;28;20101;-79
2024/03/20 06:13:09;;;;;;;1999.90;999.90;;;10.70;99.90;;;;;;5014823;28;20109;-79
2024/03/20 06:15:35;;;;;;;1999.90;999.90;;;10.70;99.90;;;;;;5014770;28;20604;-70
2024/03/20 06:18:01;;;;;;;1999.90;999.90;;;10.60;99.90;;;;;;5014393;28;20061;-79
2024/03/20 06:20:26;;;;;;;1999.90;999.90;;;10.60;99.90;;;;;;5013265;28;20115;-78
2024/03/20 06:22:52;;;;;;;1999.90;999.90;;;10.60;99.90;;;;;;5005046;28;20027;-79
2024/03/20 06:25:18;;;;;;;1999.90;999.90;;;10.60;99.90;;;;;;4994782;28;20037;-71
2024/03/20 06:27:44;;;;;;;1999.90;999.90;;;10.70;99.90;;;;;;5001792;28;20505;-70
2024/03/20 06:30:15;;;;;;;1999.90;999.90;;;10.80;99.90;;;;;;5008181;28;20104;-70
2024/03/20 06:32:44;;;;;;;1999.90;999.90;;;10.80;99.90;;;;;;4999251;28;20405;-79
2024/03/20 06:35:10;;;;;;;1999.90;999.90;;;10.80;99.90;;;;;;5001641;28;20065;-79
2024/03/20 06:37:36;;;;;;;1999.90;999.90;;;10.80;99.90;;;;;;5006526;28;20519;-79
2024/03/20 06:40:06;;;;;;;1999.90;999.90;;;10.70;99.90;;;;;;5005145;28;21163;-70
2024/03/20 06:42:32;;;;;;;1999.90;999.90;;;10.80;99.90;;;;;;5003603;28;20037;-70
2024/03/20 06:44:58;;;;;;;1999.90;999.90;;;10.70;99.90;;;;;;5009438;28;20022;-69
2024/03/20 06:47:24;;;;;;;1999.90;999.90;;;10.80;99.90;;;;;;5008844;28;20022;-71
2024/03/20 06:49:50;;;;;;;1999.90;999.90;;;10.80;99.90;;;;;;5009126;28;20580;-71
2024/03/20 06:52:16;;;;;;;1999.90;999.90;;;10.70;99.90;;;;;;5008498;28;20073;-78
2024/03/20 06:54:44;;;;;;;1999.90;999.90;;;10.80;99.90;;;;;;4995920;28;20040;-71
2024/03/20 06:57:11;;;;;;;1999.90;999.90;;;10.70;99.90;;;;;;5011379;28;20049;-71
2024/03/20 06:59:40;;;;;;;1999.90;999.90;;;10.80;99.90;;;;;;5009666;28;20060;-78
2024/03/20 07:02:06;;;;;;;1999.90;999.90;;;10.80;99.90;;;;;;4998953;28;20125;-71
2024/03/20 07:04:32;;;;;;;1999.90;999.90;;;10.80;99.90;;;;;;5010961;28;20030;-71
2024/03/20 07:06:58;;;;;;;1999.90;999.90;;;10.80;99.90;;;;;;4999896;28;20033;-71
2024/03/20 07:09:25;;;;;;;1999.90;999.90;;;10.80;99.90;;;;;;5005635;28;20061;-78
2024/03/20 07:11:51;;;;;;;1999.90;999.90;;;10.90;99.90;;;;;;5007914;28;20029;-77
2024/03/20 07:14:17;;;;;;;1999.90;999.90;;;10.90;99.90;;;;;;5011083;28;20096;-71
2024/03/20 07:16:43;;;;;;;1999.90;999.90;;;11.00;99.90;;;;;;5011402;28;20034;-78
2024/03/20 07:19:09;;;;;;;1999.90;999.90;;;11.00;99.90;;;;;;5036741;28;20371;-71
2024/03/20 07:21:36;;;;;;;1999.90;999.90;;;11.10;99.90;;;;;;5006756;28;20044;-71
2024/03/20 07:24:02;;;;;;;1999.90;999.90;;;11.10;99.90;;;;;;4999437;28;20036;-74
2024/03/20 07:26:29;;;;;;;1999.90;999.90;;;11.20;99.90;;;;;;4998290;28;20112;-81
2024/03/20 07:28:55;;;;;;;1999.90;999.90;;;11.30;99.90;;;;;;5003801;28;20025;-78
2024/03/20 07:31:22;;;;;;;1999.90;999.90;;;11.40;99.90;;;;;;5000118;28;20053;-71
2024/03/20 07:33:47;;;;;;;1999.90;999.90;;;11.50;99.90;;;;;;5010174;28;20064;-71
2024/03/20 07:36:13;;;;;;;1999.90;999.90;;;11.70;99.90;;;;;;5003168;28;20057;-75
2024/03/20 07:38:39;;;;;;;1999.90;999.90;;;11.80;99.90;;;;;;5004258;28;20033;-79
2024/03/20 07:41:04;;;;;;;1999.90;999.90;;;11.90;99.90;;;;;;5004037;28;20036;-71
2024/03/20 07:43:30;;;;;;;1999.90;999.90;;;11.90;99.90;;;;;;5009175;28;20033;-80
2024/03/20 07:45:56;;;;;;;1999.90;999.90;;;12.00;99.90;;;;;;5017230;28;20057;-71
2024/03/20 07:48:22;;;;;;;1999.90;999.90;;;12.00;99.90;;;;;;5006606;28;20026;-72
2024/03/20 07:50:54;;;;;;;1999.90;999.90;;;12.00;99.90;;;;;;5003511;28;20036;-80
2024/03/20 07:53:20;;;;;;;1999.90;999.90;;;12.00;99.90;;;;;;5010063;28;20033;-80
2024/03/20 07:55:45;;;;;;;1999.90;999.90;;;12.00;99.90;;;;;;5001448;28;20030;-77
2024/03/20 07:58:13;;;;;;;1999.90;999.90;;;12.00;99.90;;;;;;5008519;28;20038;-72
2024/03/20 08:00:39;;;;;;;1999.90;999.90;;;12.10;99.90;;;;;;5005418;28;20049;-71
2024/03/20 08:03:05;;;;;;;1999.90;999.90;;;12.20;99.90;;;;;;5005163;28;20045;-71
2024/03/20 08:05:31;;;;;;;1999.90;999.90;;;12.30;99.90;;;;;;5017180;28;20033;-77
2024/03/20 08:07:57;;;;;;;1999.90;999.90;;;12.50;99.90;;;;;;5002965;28;20023;-71
2024/03/20 08:10:24;;;;;;;1999.90;999.90;;;12.70;99.90;;;;;;5007384;28;20140;-78
2024/03/20 08:12:50;;;;;;;1999.90;999.90;;;12.90;99.90;;;;;;5010147;28;20350;-71
2024/03/20 08:15:16;;;;;;;1999.90;999.90;;;13.00;99.90;;;;;;5014954;28;20038;-80
2024/03/20 08:17:46;;;;;;;1999.90;999.90;;;12.90;99.90;;;;;;5006541;28;20060;-71
2024/03/20 08:20:13;;;;;;;1999.90;999.90;;;12.70;99.90;;;;;;5029982;28;20045;-80
2024/03/20 08:22:42;;;;;;;1999.90;999.90;;;12.50;99.90;;;;;;5038331;28;20404;-80
2024/03/20 08:25:10;;;;;;;1999.90;999.90;;;12.30;99.90;;;;;;5009738;28;20026;-71
2024/03/20 08:27:36;;;;;;;1999.90;999.90;;;12.30;99.90;;;;;;5007349;28;20022;-72
2024/03/20 08:30:03;;;;;;;1999.90;999.90;;;12.20;99.90;;;;;;5010423;28;20101;-79
2024/03/20 08:32:30;;;;;;;1999.90;999.90;;;12.20;99.90;;;;;;5011521;28;20029;-79
2024/03/20 08:34:56;;;;;;;1999.90;999.90;;;12.20;99.90;;;;;;5007877;28;20026;-80
2024/03/20 08:37:22;;;;;;;1999.90;999.90;;;12.30;99.90;;;;;;5007720;28;20035;-80
2024/03/20 08:39:48;;;;;;;1999.90;999.90;;;12.40;99.90;;;;;;5000377;28;20027;-72
2024/03/20 08:42:14;;;;;;;1999.90;999.90;;;12.60;99.90;;;;;;5004845;28;20034;-80
2024/03/20 08:44:40;;;;;;;1999.90;999.90;;;12.70;99.90;;;;;;5026817;28;20022;-80
2024/03/20 08:47:07;;;;;;;1999.90;999.90;;;12.60;99.90;;;;;;5027965;28;20025;-80
2024/03/20 08:49:37;;;;;;;1999.90;999.90;;;12.50;99.90;;;;;;5015933;28;20362;-72
2024/03/20 08:52:06;;;;;;;1999.90;999.90;;;12.40;99.90;;;;;;5021652;28;20018;-80
2024/03/20 08:54:34;;;;;;;1999.90;999.90;;;12.50;99.90;;;;;;5021035;28;20033;-71
2024/03/20 08:57:07;;;;;;;1999.90;999.90;;;12.40;99.90;;;;;;5020618;28;20057;-71
2024/03/20 08:59:34;;;;;;;1999.90;999.90;;;12.40;99.90;;;;;;5016169;28;20412;-78
2024/03/20 09:02:00;;;;;;;1999.90;999.90;;;12.50;99.90;;;;;;5034108;28;20046;-75
2024/03/20 09:04:25;;;;;;;1999.90;999.90;;;12.40;99.90;;;;;;5022135;28;20076;-70
2024/03/20 09:06:51;;;;;;;1999.90;999.90;;;12.40;99.90;;;;;;5016935;28;20038;-70
2024/03/20 09:09:17;;;;;;;1999.90;999.90;;;12.40;99.90;;;;;;5038337;28;20074;-77
2024/03/20 09:11:42;;;;;;;1999.90;999.90;;;12.40;99.90;;;;;;5030120;28;20496;-74
2024/03/20 09:14:08;;;;;;;1999.90;999.90;;;12.40;99.90;;;;;;5032257;28;20014;-75
2024/03/20 09:16:34;;;;;;;1999.90;999.90;;;12.40;99.90;;;;;;5024193;28;20037;-70
2024/03/20 09:19:00;;;;;;;1999.90;999.90;;;12.40;99.90;;;;;;5011463;28;20100;-77
2024/03/20 09:21:25;;;;;;;1999.90;999.90;;;12.30;99.90;;;;;;5018046;28;20022;-76
2024/03/20 09:23:51;;;;;;;1999.90;999.90;;;12.30;99.90;;;;;;5038134;28;20064;-75
2024/03/20 09:26:17;;;;;;;1999.90;999.90;;;12.30;99.90;;;;;;5020927;28;20469;-78
2024/03/20 09:28:43;;;;;;;1999.90;999.90;;;12.40;99.90;;;;;;5003376;28;20076;-76
2024/03/20 09:31:08;;;;;;;1999.90;999.90;;;12.50;99.90;;;;;;5011524;28;20024;-71
2024/03/20 09:33:34;;;;;;;1999.90;999.90;;;12.60;99.90;;;;;;5014967;28;20022;-70
2024/03/20 09:35:59;;;;;;;1999.90;999.90;;;12.70;99.90;;;;;;5005954;28;20033;-78
2024/03/20 09:38:25;;;;;;;1999.90;999.90;;;13.10;99.90;;;;;;5015849;28;20025;-76
2024/03/20 09:40:51;;;;;;;1999.90;999.90;;;13.40;99.90;;;;;;5010187;28;20040;-78
2024/03/20 09:43:18;;;;;;;1999.90;999.90;;;13.70;99.90;;;;;;5011416;28;20036;-71
2024/03/20 09:45:43;;;;;;;1999.90;999.90;;;14.10;99.90;;;;;;5011694;28;20030;-72
2024/03/20 09:48:10;;;;;;;1999.90;999.90;;;14.30;99.90;;;;;;5011222;28;20525;-77
2024/03/20 09:50:38;;;;;;;1999.90;999.90;;;14.20;99.90;;;;;;5011195;28;20022;-71
2024/03/20 09:53:05;;;;;;;1999.90;999.90;;;14.30;99.90;;;;;;5012148;28;20057;-79
2024/03/20 09:55:34;;;;;;;1999.90;999.90;;;14.30;99.90;;;;;;5010203;28;20444;-78
2024/03/20 09:58:00;;;;;;;1999.90;999.90;;;14.30;99.90;;;;;;5009181;28;20420;-71
2024/03/20 10:00:27;;;;;;;1999.90;999.90;;;14.50;99.90;;;;;;5015012;28;20054;-78
2024/03/20 10:02:54;;;;;;;1999.90;999.90;;;14.90;99.90;;;;;;5011078;28;20030;-71
2024/03/20 10:05:19;;;;;;;1999.90;999.90;;;15.20;99.90;;;;;;5010702;28;20025;-72
2024/03/20 10:07:51;;;;;;;1999.90;999.90;;;15.20;99.90;;;;;;5009725;28;20412;-79
2024/03/20 10:10:17;;;;;;;1999.90;999.90;;;15.30;99.90;;;;;;5009785;28;20470;-72
2024/03/20 10:12:45;;;;;;;1999.90;999.90;;;15.50;99.90;;;;;;5011564;28;20109;-72
2024/03/20 10:15:11;;;;;;;1999.90;999.90;;;15.90;99.90;;;;;;5010215;28;20092;-69
2024/03/20 10:17:41;;;;;;;1999.90;999.90;;;16.40;99.90;;;;;;5009663;28;20104;-79
2024/03/20 10:20:15;;;;;;;1999.90;999.90;;;16.50;99.90;;;;;;5010725;28;20029;-71
2024/03/20 10:22:41;;;;;;;1999.90;999.90;;;16.40;99.90;;;;;;5006089;28;20066;-70
2024/03/20 10:25:16;;;;;;;1999.90;999.90;;;17.10;99.90;;;;;;5009151;28;20116;-78
2024/03/20 10:27:51;;;;;;;1999.90;999.90;;;17.80;99.90;;;;;;5010180;28;20030;-70
2024/03/20 10:30:21;;;;;;;1999.90;999.90;;;17.90;99.90;;;;;;5008330;28;20037;-75
2024/03/20 10:32:48;;;;;;;1999.90;999.90;;;17.90;99.90;;;;;;5009910;28;20030;-77
2024/03/20 10:35:16;;;;;;;1999.90;999.90;;;17.40;99.90;;;;;;5010857;28;20030;-70
2024/03/20 10:37:47;;;;;;;1999.90;999.90;;;17.00;99.90;;;;;;5024837;28;20029;-70
2024/03/20 10:40:20;;;;;;;1999.90;999.90;;;16.90;99.90;;;;;;5012670;28;20033;-78
2024/03/20 10:42:49;;;;;;;1999.90;999.90;;;17.10;99.90;;;;;;5011302;28;20045;-71
2024/03/20 10:45:16;;;;;;;1999.90;999.90;;;17.80;99.90;;;;;;5012997;28;20021;-75
2024/03/20 10:47:44;;;;;;;1999.90;999.90;;;18.20;99.90;;;;;;5008519;28;20537;-70
2024/03/20 10:50:18;;;;;;;1999.90;999.90;;;18.00;99.90;;;;;;5011042;28;20363;-70
2024/03/20 10:52:46;;;;;;;1999.90;999.90;;;18.30;99.90;;;;;;5022128;28;20064;-71
2024/03/20 10:55:15;;;;;;;1999.90;999.90;;;18.20;99.90;;;;;;5012603;28;20026;-76
2024/03/20 10:57:41;;;;;;;1999.90;999.90;;;18.30;99.90;;;;;;5003917;28;20045;-79
2024/03/20 11:00:16;;;;;;;1999.90;999.90;;;18.20;99.90;;;;;;5007940;28;20121;-70
2024/03/20 11:02:43;;;;;;;1999.90;999.90;;;18.10;99.90;;;;;;5011129;28;20831;-70
2024/03/20 11:05:34;;;;;;;1999.90;999.90;;;18.20;99.90;;;;;;5010716;28;20014;-76
2024/03/20 11:08:00;;;;;;;1999.90;999.90;;;18.60;99.90;;;;;;5007804;28;20022;-76
2024/03/20 11:10:29;;;;;;;1999.90;999.90;;;18.60;99.90;;;;;;5008040;28;20079;-70
2024/03/20 11:12:57;;;;;;;1999.90;999.90;;;18.90;99.90;;;;;;5025360;28;20032;-77
2024/03/20 11:15:27;;;;;;;1999.90;999.90;;;19.50;99.90;;;;;;5011197;28;20033;-72
2024/03/20 11:17:53;;;;;;;1999.90;999.90;;;20.50;99.90;;;;;;5010748;28;20022;-71
2024/03/20 11:20:37;;;;;;;1999.90;999.90;;;20.30;99.90;;;;;;5011047;28;20045;-71
2024/03/20 11:23:10;;;;;;;1999.90;999.90;;;20.00;99.90;;;;;;5000375;28;20038;-72
2024/03/20 11:25:39;;;;;;;1999.90;999.90;;;19.80;99.90;;;;;;5007597;28;20072;-80
2024/03/20 11:28:05;;;;;;;1999.90;999.90;;;19.40;99.90;;;;;;5003308;28;20044;-72
2024/03/20 11:30:31;;;;;;;1999.90;999.90;;;19.20;99.90;;;;;;5001860;28;20057;-80
2024/03/20 11:32:57;;;;;;;1999.90;999.90;;;19.10;99.90;;;;;;5008907;28;20021;-80
2024/03/20 11:35:26;;;;;;;1999.90;999.90;;;19.10;99.90;;;;;;5020280;28;20449;-72
2024/03/20 11:37:52;;;;;;;1999.90;999.90;;;19.10;99.90;;;;;;5011792;28;20525;-80
2024/03/20 11:40:17;;;;;;;1999.90;999.90;;;19.40;99.90;;;;;;5012400;28;20034;-72
2024/03/20 11:42:43;;;;;;;1999.90;999.90;;;19.90;99.90;;;;;;5008126;28;20497;-71
2024/03/20 11:45:13;;;;;;;1999.90;999.90;;;20.20;99.90;;;;;;5011792;28;20030;-78
2024/03/20 11:47:38;;;;;;;1999.90;999.90;;;19.90;99.90;;;;;;5010393;28;20030;-72
2024/03/20 11:50:06;;;;;;;1999.90;999.90;;;19.90;99.90;;;;;;5002477;28;20647;-79
2024/03/20 11:52:32;;;;;;;1999.90;999.90;;;19.90;99.90;;;;;;5006390;28;20034;-79
2024/03/20 11:54:58;;;;;;;1999.90;999.90;;;20.10;99.90;;;;;;5011729;28;20358;-72